Kansas City, MO (64129)

5:05 PM CDT on August 21, 2014 (GMT -0500)
AMR Scrap Recycling Yard | Change Station
CLOSE
Current Station
Personal Weather Station
Location: Kansas City, MO
Elevation: 781 ft
Nearby Weather Stations
Active Advisory: Heat Advisory

Elev 781 ft 39.07 °N, 94.49 °W | Updated 12 minutes ago

Clear
Clear
95.9 °F
Feels Like 111 °F
N
2.0
Wind Variable Wind from East
Gusts 6.0 mph

Today
High -- | Low -- °F
--% Chance of Precip.
Yesterday
High -- | Low -- °F
Precip. -- in
6:36 AM 8:04 PM
Waning Crescent, 12% visible
Pressure 29.81 in
Visibility 10.0 miles
Clouds Clear
Heat Index 111 °F
Dew Point 77 °F
Humidity 55%
Rainfall 0.00 in
Snow Depth Not available.
UV 4 out of 12
Pollen 11.10 out of 12
Ozone Good
PM2.5 Moderate
Flu Activity Not available.
METAR KMKC 212154Z 19015G20KT 10SM CLR 36/22 A2984 RMK AO2 SLP093 T03560217

More Conditions Fewer Conditions

Pressure 29.81 in
Visibility 10.0 miles
Clouds Clear
Heat Index 111 °F
Dew Point 77 °F
Humidity 55%
Rainfall 0.00 in
Snow Depth Not available.
UV 4 out of 12
Pollen 11.10 out of 12
Ozone Good
PM2.5 Moderate
Flu Activity Not available.
METAR KMKC 212154Z 19015G20KT 10SM CLR 36/22 A2984 RMK AO2 SLP093 T03560217

More Conditions Fewer Conditions

10-Day Weather Forecast

Almanac

Astronomy

Aug. 21, 2014 Rise Set
Actual Time 6:36 AM CDT 8:04 PM CDT
Civil Twilight 6:08 AM CDT 8:32 PM CDT
Nautical Twilight 5:34 AM CDT 9:06 PM CDT
Astronomical Twilight 4:59 AM CDT 9:41 PM CDT
Moon 3:08 AM CDT 5:33 PM CDT
Length of Visible Light 14h 23m
Length of Day
13h 27m
Tomorrow will be 2m 19s shorter.
Waning Crescent, 12% of the Moon is Illuminated
Today
Waning Crescent
Aug 25
New
Sep 2
First Quarter
Sep 8
Full
Sep 15
Last Quarter

Today's Extremes

State Highs State Lows

Community

WunderPhotos

Upload Photos

1,746,033 photos uploaded!

WunderBlogs® & News

Nearby

Air Quality

  Air Quality AQ Index Pollutant
Yesterday Moderate
PM2.5
Yesterday Good
OZONE
Current Moderate
PM2.5
Current Good
OZONE
Thursday Good
OZONE
Friday Good
OZONE

Snow Depth

Station Depth Elevation
No new snow has been reported.

Earthquake Activity

City Distance Mag. Time & Date
No recent earthquake activity has been reported nearby.
Minimum magnitude displayed is 2.5.

Coastal Water Temperatures

Place Temperature
No Stations Reporting

Nearby Weather Stations